Terminal Aerodrome Forecast
Issued by NWS Charleston, WV

Current Version | Previous Version | Graphics & Text | Print | Product List | Glossary On
Versions: 1 2 3 4 5 6 7 8 9 10 11 12 13 14 15 16 17 18 19 20 21 22 23 24 25
000
FTUS41 KRLX 170300 AAA
TAFBKW
TAF AMD
KBKW 170307Z 1703/1724 29010KT 5SM -DZ BR OVC012
      TEMPO 1703/1707 OVC008
     FM170700 28008KT 5SM -DZ BR OVC008
     FM171300 28009KT P6SM OVC008
     FM171700 29011G19KT P6SM OVC008
     FM172300 29010G17KT P6SM OVC025=

USA.gov is the U.S. government's official web portal to all federal, state and local government web resources and services.